Time;durP1;ratioP1;P1;durP2;ratioP2;P2;SDS_P1;SDS_P2;PMS_P1;PMS_P2;Temp;Humidity;BMP_temperature;BMP_pressure;BME280_temperature;BME280_humidity;BME280_pressure;Samples;Min_cycle;Max_cycle;Signal;HPM_P1;HPM_P2
2023/05/21 00:02:16;;;;;;;23.47;15.30;;;14.50;55.80;;;;;;5072287;28;47103;-65
2023/05/21 00:04:43;;;;;;;20.33;14.23;;;14.50;55.80;;;;;;5071630;28;46461;-65
2023/05/21 00:07:08;;;;;;;23.07;15.50;;;14.60;56.00;;;;;;5070014;28;46449;-65
2023/05/21 00:09:37;;;;;;;19.17;13.73;;;14.60;55.90;;;;;;5070181;28;46450;-66
2023/05/21 00:12:03;;;;;;;22.43;14.90;;;14.50;55.80;;;;;;5073291;28;46662;-66
2023/05/21 00:14:29;;;;;;;19.87;14.27;;;14.60;55.90;;;;;;5069066;28;46348;-66
2023/05/21 00:16:54;;;;;;;23.70;16.20;;;14.60;55.90;;;;;;5069566;28;46227;-66
2023/05/21 00:19:20;;;;;;;32.73;14.67;;;14.60;55.80;;;;;;5070170;28;46503;-66
2023/05/21 00:21:46;;;;;;;19.13;13.93;;;14.50;55.80;;;;;;5069601;28;47193;-67
2023/05/21 00:24:11;;;;;;;24.23;16.90;;;14.50;55.80;;;;;;5074283;28;45997;-66
2023/05/21 00:26:37;;;;;;;22.37;14.27;;;14.40;55.70;;;;;;5068433;28;46467;-67
2023/05/21 00:29:02;;;;;;;23.07;16.70;;;14.30;55.60;;;;;;5070780;28;46370;-66
2023/05/21 00:31:28;;;;;;;21.07;14.60;;;14.30;55.60;;;;;;5069133;27;47290;-67
2023/05/21 00:33:54;;;;;;;21.20;15.03;;;14.20;56.10;;;;;;5069489;28;46486;-66
2023/05/21 00:36:22;;;;;;;22.37;16.07;;;14.20;56.20;;;;;;5070912;28;46553;-66
2023/05/21 00:38:49;;;;;;;21.50;15.37;;;14.20;56.40;;;;;;5066823;28;46553;-66
2023/05/21 00:41:15;;;;;;;23.93;15.63;;;14.30;56.30;;;;;;5072191;28;46385;-66
2023/05/21 00:43:41;;;;;;;24.50;15.13;;;14.20;55.80;;;;;;5066617;28;46571;-66
2023/05/21 00:46:15;;;;;;;21.40;15.20;;;14.20;55.50;;;;;;5071091;28;46432;-66
2023/05/21 00:48:44;;;;;;;22.67;14.70;;;14.20;55.50;;;;;;5067712;28;46422;-67
2023/05/21 00:51:11;;;;;;;21.73;14.57;;;14.20;55.50;;;;;;5069772;28;46595;-67
2023/05/21 00:53:37;;;;;;;25.43;14.80;;;14.20;55.50;;;;;;5071146;28;46448;-66
2023/05/21 00:56:03;;;;;;;26.60;16.13;;;14.10;55.50;;;;;;5067167;28;46842;-67
2023/05/21 00:58:29;;;;;;;23.40;14.70;;;14.10;56.10;;;;;;5068071;28;46492;-66
2023/05/21 01:00:55;;;;;;;19.97;14.53;;;14.00;56.30;;;;;;5066324;28;47187;-66
2023/05/21 01:03:25;;;;;;;21.63;14.20;;;14.10;56.40;;;;;;5066664;28;46476;-67
2023/05/21 01:05:52;;;;;;;21.20;14.50;;;14.10;56.20;;;;;;5065759;28;46282;-67
2023/05/21 01:08:21;;;;;;;19.90;14.20;;;14.00;56.30;;;;;;5068351;27;45975;-67
2023/05/21 01:10:48;;;;;;;23.80;15.10;;;14.00;56.40;;;;;;5070522;28;46599;-66
2023/05/21 01:13:15;;;;;;;23.43;14.23;;;14.00;56.50;;;;;;5070375;28;46441;-66
2023/05/21 01:15:42;;;;;;;21.63;15.07;;;14.00;56.40;;;;;;5068649;28;46358;-66
2023/05/21 01:18:08;;;;;;;21.30;14.10;;;14.00;56.40;;;;;;5066569;28;45837;-67
2023/05/21 01:20:34;;;;;;;20.93;14.33;;;13.90;56.20;;;;;;5066501;28;47359;-66
2023/05/21 01:22:59;;;;;;;30.47;14.23;;;13.90;56.50;;;;;;5073013;28;46357;-66
2023/05/21 01:25:25;;;;;;;20.70;13.70;;;13.80;56.60;;;;;;5068228;28;46479;-64
2023/05/21 01:27:51;;;;;;;26.73;13.53;;;13.70;56.70;;;;;;5069355;28;46435;-66
2023/05/21 01:30:19;;;;;;;21.77;13.53;;;13.60;56.90;;;;;;5068029;28;46650;-66
2023/05/21 01:33:06;;;;;;;24.00;14.80;;;13.50;58.00;;;;;;5066998;28;46459;-66
2023/05/21 01:35:40;;;;;;;22.80;14.93;;;13.40;57.70;;;;;;5068310;28;46396;-66
2023/05/21 01:38:08;;;;;;;26.50;14.83;;;13.50;57.70;;;;;;5065865;28;46425;-66
2023/05/21 01:40:40;;;;;;;19.90;14.23;;;13.30;57.30;;;;;;5065428;28;46673;-66
2023/05/21 01:43:08;;;;;;;25.73;15.80;;;13.40;58.40;;;;;;5064374;28;46686;-65
2023/05/21 01:45:38;;;;;;;22.03;15.17;;;13.50;57.20;;;;;;5071033;28;46436;-66
2023/05/21 01:48:06;;;;;;;24.37;15.37;;;13.40;57.20;;;;;;5062127;28;46466;-66
2023/05/21 01:50:32;;;;;;;26.30;15.60;;;13.40;58.40;;;;;;5069016;28;47189;-66
2023/05/21 01:53:02;;;;;;;21.90;16.00;;;13.40;57.60;;;;;;5065711;28;46359;-66
2023/05/21 01:55:30;;;;;;;21.97;14.50;;;13.40;57.80;;;;;;5066800;28;46504;-66
2023/05/21 01:57:56;;;;;;;20.47;14.70;;;13.40;57.60;;;;;;5063988;28;46358;-66
2023/05/21 02:00:23;;;;;;;19.70;15.67;;;13.40;57.50;;;;;;5067154;28;46546;-66
2023/05/21 02:02:50;;;;;;;22.77;15.33;;;13.40;57.50;;;;;;5062795;28;46393;-67
2023/05/21 02:05:16;;;;;;;19.03;13.43;;;13.40;57.50;;;;;;5066894;27;46491;-66
2023/05/21 02:07:44;;;;;;;24.27;13.43;;;13.30;57.50;;;;;;5064934;28;46666;-66
2023/05/21 02:10:10;;;;;;;18.97;12.50;;;13.20;57.70;;;;;;5064426;28;47191;-66
2023/05/21 02:12:36;;;;;;;19.50;12.60;;;13.20;57.90;;;;;;5066846;28;46414;-66
2023/05/21 02:15:01;;;;;;;21.50;13.83;;;13.10;58.00;;;;;;5064599;28;46313;-66
2023/05/21 02:17:32;;;;;;;20.53;13.23;;;13.10;58.20;;;;;;5066664;27;46360;-66
2023/05/21 02:20:09;;;;;;;18.67;12.97;;;13.10;58.00;;;;;;5066235;28;46708;-66
2023/05/21 02:22:39;;;;;;;20.83;13.90;;;13.10;57.80;;;;;;5063400;28;46381;-66
2023/05/21 02:25:06;;;;;;;18.67;13.77;;;13.10;57.90;;;;;;5064695;28;46429;-65
2023/05/21 02:27:33;;;;;;;23.30;14.00;;;13.10;57.80;;;;;;5067853;28;46357;-67
2023/05/21 02:29:59;;;;;;;18.23;13.50;;;13.10;58.00;;;;;;5065388;28;47297;-67
2023/05/21 02:32:25;;;;;;;23.17;13.00;;;13.10;57.80;;;;;;5069692;27;46375;-66
2023/05/21 02:34:51;;;;;;;20.77;13.40;;;13.10;57.70;;;;;;5063556;28;46359;-66
2023/05/21 02:37:18;;;;;;;17.60;12.97;;;13.10;57.80;;;;;;5066429;28;46382;-66
2023/05/21 02:39:43;;;;;;;21.60;14.67;;;13.10;57.90;;;;;;5067871;28;47376;-66
2023/05/21 02:42:09;;;;;;;20.40;14.00;;;13.10;58.00;;;;;;5068641;28;46521;-67
2023/05/21 02:44:35;;;;;;;20.07;14.57;;;13.00;58.30;;;;;;5069148;27;46419;-66
2023/05/21 02:47:00;;;;;;;23.80;15.00;;;13.00;58.70;;;;;;5066854;28;46532;-67
2023/05/21 02:49:26;;;;;;;24.87;15.93;;;13.00;59.00;;;;;;5065480;28;47189;-66
2023/05/21 02:51:51;;;;;;;26.00;15.37;;;13.00;58.80;;;;;;5065537;28;46047;-67
2023/05/21 02:54:17;;;;;;;21.97;15.23;;;13.00;58.80;;;;;;5065865;27;45816;-66
2023/05/21 02:56:42;;;;;;;22.73;15.87;;;13.10;58.80;;;;;;5065237;28;46584;-66
2023/05/21 02:59:08;;;;;;;23.80;15.43;;;13.10;58.80;;;;;;5065756;28;46420;-66
2023/05/21 03:01:34;;;;;;;22.33;15.10;;;13.10;58.70;;;;;;5068168;28;46467;-66
2023/05/21 03:03:59;;;;;;;23.83;17.00;;;13.10;58.70;;;;;;5066799;28;46432;-67
2023/05/21 03:06:25;;;;;;;23.37;14.93;;;13.00;58.90;;;;;;5067996;28;46551;-67
2023/05/21 03:08:50;;;;;;;23.33;15.93;;;13.10;59.30;;;;;;5062896;28;46223;-67
2023/05/21 03:11:17;;;;;;;22.87;15.13;;;13.10;58.80;;;;;;5066511;28;46380;-66
2023/05/21 03:13:43;;;;;;;22.00;14.00;;;13.00;58.90;;;;;;5065273;28;46410;-66
2023/05/21 03:16:09;;;;;;;21.90;13.90;;;13.00;59.10;;;;;;5066060;28;46674;-66
2023/05/21 03:18:34;;;;;;;22.73;13.97;;;12.90;59.10;;;;;;5066915;28;47247;-66
2023/05/21 03:21:00;;;;;;;17.80;13.30;;;12.90;59.20;;;;;;5062374;27;46450;-66
2023/05/21 03:23:26;;;;;;;20.70;13.03;;;12.90;59.30;;;;;;5067116;28;46433;-66
2023/05/21 03:25:51;;;;;;;20.70;12.73;;;12.80;59.50;;;;;;5067980;28;46440;-66
2023/05/21 03:28:17;;;;;;;34.57;13.70;;;12.80;59.50;;;;;;5067219;28;46553;-66
2023/05/21 03:30:45;;;;;;;16.80;11.80;;;12.80;59.60;;;;;;5069485;28;46514;-66
2023/05/21 03:33:15;;;;;;;18.50;11.70;;;12.80;59.50;;;;;;5065312;28;46362;-66
2023/05/21 03:35:40;;;;;;;18.70;12.17;;;12.80;59.60;;;;;;5064112;28;46275;-66
2023/05/21 03:38:06;;;;;;;20.80;11.77;;;12.70;59.70;;;;;;5064316;28;47255;-66
2023/05/21 03:40:32;;;;;;;17.80;12.30;;;12.60;59.80;;;;;;5067675;28;46454;-66
2023/05/21 03:42:57;;;;;;;16.00;11.50;;;12.60;60.00;;;;;;5063529;28;46469;-66
2023/05/21 03:45:23;;;;;;;13.83;10.07;;;12.60;60.10;;;;;;5067423;28;46536;-66
2023/05/21 03:47:48;;;;;;;18.40;12.30;;;12.50;60.20;;;;;;5064991;28;47529;-67
2023/05/21 03:50:14;;;;;;;21.17;13.10;;;12.50;60.20;;;;;;5065735;28;46398;-66
2023/05/21 03:52:40;;;;;;;21.43;14.23;;;12.50;60.30;;;;;;5063432;28;46437;-66
2023/05/21 03:55:05;;;;;;;19.83;13.53;;;12.40;60.70;;;;;;5065810;28;45896;-66
2023/05/21 03:57:31;;;;;;;22.23;13.90;;;12.40;61.00;;;;;;5067478;28;46405;-67
2023/05/21 03:59:57;;;;;;;19.67;14.00;;;12.50;60.80;;;;;;5065296;28;46347;-66
2023/05/21 04:02:25;;;;;;;19.23;13.67;;;12.60;60.50;;;;;;5066671;28;46387;-66
2023/05/21 04:04:52;;;;;;;18.77;13.00;;;12.60;60.20;;;;;;5064245;28;46570;-67
2023/05/21 04:07:18;;;;;;;18.60;11.80;;;12.70;60.30;;;;;;5062826;28;46631;-66
2023/05/21 04:09:44;;;;;;;18.33;12.40;;;12.70;60.20;;;;;;5065528;28;46474;-66
2023/05/21 04:12:09;;;;;;;20.93;13.17;;;12.70;60.30;;;;;;5066389;28;46402;-66
2023/05/21 04:14:36;;;;;;;21.73;15.03;;;12.70;60.30;;;;;;5066253;28;46479;-66
2023/05/21 04:17:04;;;;;;;22.03;14.60;;;12.70;60.30;;;;;;5065776;28;47992;-66
2023/05/21 04:19:30;;;;;;;20.70;13.17;;;12.70;60.30;;;;;;5066203;28;47174;-66
2023/05/21 04:21:56;;;;;;;22.97;14.40;;;12.80;60.10;;;;;;5063831;28;46514;-66
2023/05/21 04:24:23;;;;;;;20.00;13.00;;;12.80;60.00;;;;;;5061946;28;46464;-66
2023/05/21 04:26:48;;;;;;;21.13;13.33;;;12.90;59.80;;;;;;5064444;28;47018;-66
2023/05/21 04:29:16;;;;;;;20.40;13.97;;;13.00;59.40;;;;;;5062311;28;46442;-65
2023/05/21 04:31:42;;;;;;;18.37;12.73;;;13.10;59.20;;;;;;5067643;28;46393;-66
2023/05/21 04:34:08;;;;;;;19.37;12.40;;;13.10;59.10;;;;;;5069578;28;46338;-67
2023/05/21 04:36:34;;;;;;;16.93;12.00;;;13.10;59.10;;;;;;5067026;28;46659;-67
2023/05/21 04:39:00;;;;;;;17.23;11.63;;;13.10;59.20;;;;;;5070261;27;46434;-66
2023/05/21 04:41:25;;;;;;;19.50;12.50;;;13.10;59.30;;;;;;5067902;27;46487;-66
2023/05/21 04:43:54;;;;;;;20.53;13.43;;;13.20;59.00;;;;;;5070899;28;46515;-66
2023/05/21 04:46:24;;;;;;;19.13;12.10;;;13.30;58.80;;;;;;5068954;28;47300;-66
2023/05/21 04:48:52;;;;;;;18.13;13.13;;;13.40;58.60;;;;;;5068599;28;46561;-67
2023/05/21 04:51:18;;;;;;;19.80;13.23;;;13.40;58.60;;;;;;5068269;28;46345;-67
2023/05/21 04:53:44;;;;;;;19.10;12.47;;;13.50;58.60;;;;;;5068250;28;46418;-68
2023/05/21 04:56:10;;;;;;;19.47;13.07;;;13.70;58.30;;;;;;5071433;28;46432;-66
2023/05/21 04:58:36;;;;;;;16.77;12.00;;;13.80;58.00;;;;;;5068445;28;46357;-66
2023/05/21 05:01:04;;;;;;;19.57;13.10;;;13.90;57.60;;;;;;5066117;28;45836;-66
2023/05/21 05:03:30;;;;;;;20.53;12.80;;;14.10;57.40;;;;;;5069377;28;46358;-66
2023/05/21 05:05:55;;;;;;;21.93;14.67;;;14.30;56.90;;;;;;5067032;28;46698;-66
2023/05/21 05:08:21;;;;;;;21.50;14.60;;;14.40;56.60;;;;;;5067538;28;46347;-66
2023/05/21 05:10:46;;;;;;;19.30;13.60;;;14.70;56.00;;;;;;5067469;28;46376;-66
2023/05/21 05:13:12;;;;;;;17.00;11.93;;;14.90;56.10;;;;;;5067807;28;46427;-66
2023/05/21 05:15:37;;;;;;;17.83;11.83;;;15.10;56.30;;;;;;5064700;28;48300;-65
2023/05/21 05:18:03;;;;;;;17.10;12.13;;;15.20;55.90;;;;;;5065687;28;46566;-65
2023/05/21 05:20:29;;;;;;;18.70;13.77;;;15.10;55.90;;;;;;5066471;28;46532;-66
2023/05/21 05:22:54;;;;;;;16.40;13.07;;;15.20;55.70;;;;;;5067480;28;46573;-66
2023/05/21 05:25:20;;;;;;;22.93;12.53;;;15.10;56.30;;;;;;5065239;28;46347;-65
2023/05/21 05:27:45;;;;;;;19.90;13.43;;;15.20;56.40;;;;;;5067184;28;46824;-66
2023/05/21 05:30:11;;;;;;;18.27;12.30;;;15.40;55.50;;;;;;5065775;28;46413;-67
2023/05/21 05:32:37;;;;;;;20.33;12.50;;;15.50;55.30;;;;;;5069040;28;46381;-67
2023/05/21 05:35:03;;;;;;;19.10;11.20;;;15.50;54.70;;;;;;5066131;28;47238;-66
2023/05/21 05:37:28;;;;;;;16.80;11.23;;;15.80;54.00;;;;;;5066527;28;46496;-65
2023/05/21 05:39:54;;;;;;;17.80;11.40;;;15.90;53.30;;;;;;5066352;28;46373;-66
2023/05/21 05:42:19;;;;;;;16.87;10.67;;;16.00;52.60;;;;;;5065926;28;46300;-65
2023/05/21 05:44:45;;;;;;;16.33;10.27;;;16.00;52.70;;;;;;5065545;28;46443;-65
2023/05/21 05:47:10;;;;;;;20.37;12.13;;;16.00;52.80;;;;;;5069650;28;46682;-66
2023/05/21 05:49:36;;;;;;;14.13;10.00;;;16.00;52.60;;;;;;5069613;27;46661;-66
2023/05/21 05:52:02;;;;;;;14.60;10.80;;;16.20;52.20;;;;;;5069986;28;46538;-65
2023/05/21 05:54:27;;;;;;;14.57;9.90;;;16.20;51.70;;;;;;5066794;28;47081;-65
2023/05/21 05:56:53;;;;;;;12.27;9.73;;;16.30;51.10;;;;;;5067976;28;46377;-66
2023/05/21 05:59:18;;;;;;;16.57;10.00;;;16.40;50.30;;;;;;5063953;28;46477;-66
2023/05/21 06:01:44;;;;;;;12.63;8.83;;;16.40;49.50;;;;;;5066561;28;46475;-65
2023/05/21 06:04:09;;;;;;;13.20;8.57;;;16.60;49.00;;;;;;5065510;28;46484;-65
2023/05/21 06:06:35;;;;;;;14.60;9.70;;;16.60;48.70;;;;;;5066705;28;46356;-66
2023/05/21 06:09:01;;;;;;;14.10;9.83;;;16.70;48.30;;;;;;5068690;28;46427;-67
2023/05/21 06:11:28;;;;;;;20.93;9.40;;;16.80;47.90;;;;;;5064819;28;46309;-67
2023/05/21 06:13:54;;;;;;;13.60;9.00;;;17.10;46.80;;;;;;5065958;28;46701;-66
2023/05/21 06:16:19;;;;;;;16.73;9.13;;;17.30;46.20;;;;;;5066597;28;46346;-67
2023/05/21 06:18:45;;;;;;;17.90;8.73;;;17.40;45.20;;;;;;5066932;28;46452;-68
2023/05/21 06:21:11;;;;;;;13.90;8.10;;;17.50;44.80;;;;;;5062753;28;46625;-68
2023/05/21 06:23:36;;;;;;;13.30;7.67;;;17.60;44.10;;;;;;5070234;28;47382;-67
2023/05/21 06:26:03;;;;;;;13.00;9.87;;;17.70;43.30;;;;;;5064867;28;46481;-67
2023/05/21 06:28:28;;;;;;;10.20;7.70;;;17.60;43.10;;;;;;5067142;28;46480;-68
2023/05/21 06:30:54;;;;;;;18.93;8.90;;;17.50;43.00;;;;;;5067635;28;46456;-68
2023/05/21 06:33:20;;;;;;;11.80;7.80;;;17.40;42.60;;;;;;5066471;28;46334;-68
2023/05/21 06:35:45;;;;;;;16.53;7.93;;;17.50;42.60;;;;;;5064325;27;45854;-67
2023/05/21 06:38:11;;;;;;;12.23;8.30;;;17.60;42.20;;;;;;5065871;28;46448;-68
2023/05/21 06:40:37;;;;;;;13.70;8.60;;;17.70;42.00;;;;;;5064339;28;46474;-68
2023/05/21 06:43:03;;;;;;;12.90;8.23;;;17.70;41.40;;;;;;5068711;28;46558;-67
2023/05/21 06:45:29;;;;;;;12.00;8.13;;;17.80;40.50;;;;;;5069038;28;46376;-68
2023/05/21 06:47:55;;;;;;;10.53;7.40;;;17.80;40.50;;;;;;5067013;28;46388;-68
2023/05/21 06:50:20;;;;;;;13.53;7.70;;;17.90;39.90;;;;;;5064973;28;46675;-68
2023/05/21 06:52:46;;;;;;;10.77;7.40;;;18.10;39.20;;;;;;5065541;28;46017;-68
2023/05/21 06:55:11;;;;;;;13.33;8.10;;;18.20;38.10;;;;;;5062321;28;46396;-68
2023/05/21 06:57:37;;;;;;;14.70;8.67;;;18.30;37.60;;;;;;5066557;28;45772;-68
2023/05/21 07:00:04;;;;;;;13.97;8.30;;;18.40;37.20;;;;;;5066435;28;46495;-67
2023/05/21 07:02:29;;;;;;;11.00;7.73;;;18.30;37.10;;;;;;5065953;28;46370;-68
2023/05/21 07:04:55;;;;;;;13.17;7.73;;;18.30;36.90;;;;;;5067157;27;46490;-68
2023/05/21 07:07:21;;;;;;;14.60;7.50;;;18.30;35.70;;;;;;5064847;28;46610;-68
2023/05/21 07:09:46;;;;;;;11.23;7.13;;;18.30;35.10;;;;;;5067645;28;46539;-69
2023/05/21 07:12:12;;;;;;;14.10;7.67;;;18.40;35.50;;;;;;5066718;28;46339;-67
2023/05/21 07:14:37;;;;;;;10.80;8.53;;;18.20;35.10;;;;;;5068018;28;46384;-69
2023/05/21 07:17:03;;;;;;;12.53;8.03;;;18.40;34.70;;;;;;5064630;28;46409;-67
2023/05/21 07:19:29;;;;;;;11.77;7.77;;;18.60;33.80;;;;;;5067878;28;46775;-68
2023/05/21 07:21:55;;;;;;;13.60;8.20;;;18.70;32.80;;;;;;5063041;28;46391;-67
2023/05/21 07:24:21;;;;;;;11.03;7.53;;;18.80;32.90;;;;;;5068435;28;46729;-67
2023/05/21 07:26:46;;;;;;;13.00;8.30;;;19.00;32.80;;;;;;5066791;28;46487;-67
2023/05/21 07:29:12;;;;;;;14.80;8.00;;;19.20;31.80;;;;;;5067645;28;46544;-67
2023/05/21 07:31:38;;;;;;;13.70;7.40;;;19.30;31.90;;;;;;5065693;28;47063;-68
2023/05/21 07:34:03;;;;;;;10.40;7.43;;;19.40;32.00;;;;;;5064922;28;46493;-68
2023/05/21 07:36:29;;;;;;;11.17;7.93;;;19.30;31.30;;;;;;5067122;28;46721;-68
2023/05/21 07:38:55;;;;;;;13.17;8.00;;;19.30;30.70;;;;;;5065545;28;46579;-68
2023/05/21 07:41:21;;;;;;;16.20;8.00;;;19.50;30.10;;;;;;5065639;28;46469;-68
2023/05/21 07:43:47;;;;;;;12.47;7.70;;;19.60;29.90;;;;;;5065687;28;46405;-68
2023/05/21 07:46:12;;;;;;;12.47;7.40;;;19.50;29.20;;;;;;5062617;28;45908;-69
2023/05/21 07:48:38;;;;;;;12.10;7.53;;;19.70;29.00;;;;;;5063091;28;46429;-67
2023/05/21 07:51:04;;;;;;;11.60;6.80;;;19.90;29.00;;;;;;5063636;28;46305;-68
2023/05/21 07:53:31;;;;;;;10.93;7.73;;;20.10;28.60;;;;;;5065559;28;46424;-68
2023/05/21 07:55:58;;;;;;;12.50;8.13;;;20.20;28.30;;;;;;5063700;27;46882;-68
2023/05/21 07:58:23;;;;;;;19.03;8.33;;;20.40;27.40;;;;;;5067835;28;46337;-68
2023/05/21 08:00:49;;;;;;;13.80;7.20;;;20.60;27.20;;;;;;5064099;28;46373;-68
2023/05/21 08:03:16;;;;;;;11.30;7.23;;;20.80;26.90;;;;;;5065174;28;46438;-67
2023/05/21 08:05:47;;;;;;;13.93;7.60;;;20.90;26.80;;;;;;5070457;28;46525;-68
2023/05/21 08:08:16;;;;;;;14.53;7.80;;;21.20;26.30;;;;;;5071079;28;46419;-68
2023/05/21 08:10:42;;;;;;;15.50;8.33;;;21.20;25.10;;;;;;5069937;28;46199;-67
2023/05/21 08:13:08;;;;;;;15.50;6.97;;;21.20;25.00;;;;;;5068960;28;46274;-67
2023/05/21 08:15:33;;;;;;;10.83;7.80;;;21.50;24.70;;;;;;5067988;28;46653;-67
2023/05/21 08:17:59;;;;;;;15.80;7.27;;;21.60;24.70;;;;;;5066585;28;46658;-67
2023/05/21 08:20:25;;;;;;;11.73;8.20;;;21.30;25.20;;;;;;5064396;28;46027;-65
2023/05/21 08:22:52;;;;;;;13.77;7.43;;;21.60;24.70;;;;;;5064444;28;46355;-66
2023/05/21 08:25:18;;;;;;;13.17;9.07;;;21.70;23.90;;;;;;5062904;28;46815;-67
2023/05/21 08:27:43;;;;;;;12.37;7.20;;;22.10;23.90;;;;;;5068570;27;46613;-69
2023/05/21 08:30:10;;;;;;;12.57;8.10;;;22.30;23.40;;;;;;5065743;27;47549;-66
2023/05/21 08:32:36;;;;;;;10.60;7.40;;;22.60;22.90;;;;;;5067486;28;46538;-68
2023/05/21 08:35:02;;;;;;;10.10;7.83;;;22.90;22.50;;;;;;5065007;28;46437;-68
2023/05/21 08:37:27;;;;;;;11.53;8.17;;;23.00;21.90;;;;;;5066491;28;46440;-65
2023/05/21 08:39:53;;;;;;;10.80;7.50;;;23.00;21.90;;;;;;5069349;28;46546;-67
2023/05/21 08:42:34;;;;;;;9.90;7.17;;;23.00;21.90;;;;;;5066481;28;46417;-67
2023/05/21 08:45:00;;;;;;;11.80;8.20;;;23.10;21.10;;;;;;5065623;28;46718;-67
2023/05/21 08:47:29;;;;;;;10.57;7.80;;;23.20;22.10;;;;;;5067536;28;46518;-67
2023/05/21 08:49:55;;;;;;;10.77;7.50;;;23.30;22.10;;;;;;5065399;28;46486;-67
2023/05/21 08:52:21;;;;;;;12.23;7.73;;;23.30;21.10;;;;;;5069742;28;46415;-67
2023/05/21 08:54:49;;;;;;;13.93;7.73;;;23.30;20.90;;;;;;5067024;28;46425;-66
2023/05/21 08:57:17;;;;;;;20.73;9.10;;;23.50;20.50;;;;;;5067616;28;46646;-68
2023/05/21 08:59:43;;;;;;;13.87;8.40;;;23.80;20.20;;;;;;5066357;28;46444;-67
2023/05/21 09:02:13;;;;;;;14.43;7.60;;;23.90;19.90;;;;;;5066310;28;46830;-68
2023/05/21 09:04:47;;;;;;;13.20;8.20;;;23.80;20.00;;;;;;5066897;28;46508;-65
2023/05/21 09:07:13;;;;;;;11.03;7.63;;;23.70;19.90;;;;;;5064869;28;46476;-68
2023/05/21 09:10:04;;;;;;;12.80;8.43;;;23.20;20.60;;;;;;5067656;27;46474;-66
2023/05/21 09:12:30;;;;;;;14.70;7.63;;;22.90;21.00;;;;;;5061830;28;46660;-67
2023/05/21 09:14:57;;;;;;;10.10;7.70;;;23.20;20.90;;;;;;5067476;28;46436;-67
2023/05/21 09:17:23;;;;;;;10.20;7.60;;;23.30;20.70;;;;;;5065935;27;46474;-67
2023/05/21 09:20:14;;;;;;;9.70;7.67;;;23.20;20.90;;;;;;5067750;28;46877;-69
2023/05/21 09:22:42;;;;;;;13.83;7.97;;;23.30;20.80;;;;;;5068046;28;46463;-67
2023/05/21 09:25:10;;;;;;;9.50;7.73;;;23.70;20.40;;;;;;5065437;28;46469;-66
2023/05/21 09:27:36;;;;;;;14.30;7.60;;;23.60;20.20;;;;;;5071478;28;46511;-70
2023/05/21 09:30:10;;;;;;;11.17;8.13;;;23.50;20.30;;;;;;5066647;28;46413;-68
2023/05/21 09:32:36;;;;;;;11.60;7.40;;;23.80;19.80;;;;;;5065786;28;46517;-69
2023/05/21 09:35:12;;;;;;;12.40;6.97;;;24.20;19.50;;;;;;5068454;28;46374;-67
2023/05/21 09:37:39;;;;;;;13.07;7.00;;;24.00;19.30;;;;;;5064765;28;46581;-67
2023/05/21 09:40:15;;;;;;;10.63;7.50;;;24.20;19.00;;;;;;5065499;28;48006;-68
2023/05/21 09:42:45;;;;;;;9.50;6.93;;;24.60;18.80;;;;;;5065295;28;46465;-68
2023/05/21 09:45:11;;;;;;;14.23;7.77;;;24.50;18.50;;;;;;5064434;28;46387;-68
2023/05/21 09:47:44;;;;;;;9.90;7.27;;;24.50;17.90;;;;;;5067043;28;46748;-67
2023/05/21 09:50:20;;;;;;;10.60;7.43;;;24.40;18.00;;;;;;5066581;27;46496;-68
2023/05/21 09:52:49;;;;;;;9.57;6.90;;;24.70;18.30;;;;;;5065955;28;46398;-67
2023/05/21 09:55:15;;;;;;;15.23;7.07;;;24.90;17.90;;;;;;5061963;28;46298;-66
2023/05/21 09:57:42;;;;;;;10.07;7.10;;;24.80;17.50;;;;;;5063229;28;46477;-66
2023/05/21 10:00:16;;;;;;;10.57;6.90;;;25.00;17.30;;;;;;5069290;28;46722;-66
2023/05/21 10:02:44;;;;;;;11.63;7.00;;;24.70;17.10;;;;;;5065234;28;46417;-66
2023/05/21 10:05:12;;;;;;;10.67;6.80;;;24.50;17.00;;;;;;5067345;28;46527;-65
2023/05/21 10:07:50;;;;;;;10.10;6.60;;;24.60;17.00;;;;;;5065746;28;46433;-67
2023/05/21 10:10:19;;;;;;;13.70;6.90;;;25.00;16.60;;;;;;5064592;28;46408;-67
2023/05/21 10:12:46;;;;;;;12.43;6.70;;;25.60;16.50;;;;;;5066482;28;46481;-66
2023/05/21 10:15:19;;;;;;;16.60;7.23;;;26.00;15.40;;;;;;5063546;28;46702;-65
2023/05/21 10:17:46;;;;;;;11.80;6.50;;;26.20;13.80;;;;;;5066983;28;46470;-66
2023/05/21 10:20:12;;;;;;;11.50;6.70;;;26.40;13.50;;;;;;5065540;28;47094;-68
2023/05/21 10:22:39;;;;;;;9.60;5.90;;;26.60;13.10;;;;;;5060797;28;46385;-66
2023/05/21 10:25:09;;;;;;;8.93;6.23;;;26.80;12.80;;;;;;5064875;28;46489;-65
2023/05/21 10:27:36;;;;;;;11.77;6.10;;;27.10;12.10;;;;;;5068496;28;46740;-65
2023/05/21 10:30:03;;;;;;;7.70;5.90;;;27.10;11.60;;;;;;5066171;28;46356;-67
2023/05/21 10:32:30;;;;;;;8.20;5.60;;;26.90;11.60;;;;;;5063253;28;46342;-66
2023/05/21 10:34:56;;;;;;;8.77;6.03;;;27.00;11.40;;;;;;5061891;28;46385;-68
2023/05/21 10:37:25;;;;;;;7.00;5.10;;;26.80;11.30;;;;;;5062103;27;46596;-67
2023/05/21 10:39:51;;;;;;;11.97;6.40;;;26.30;11.10;;;;;;5068500;28;47165;-67
2023/05/21 10:42:22;;;;;;;9.27;6.13;;;26.20;10.90;;;;;;5066025;28;46327;-68
2023/05/21 10:44:48;;;;;;;8.40;5.73;;;26.20;10.80;;;;;;5062157;28;46664;-67
2023/05/21 10:47:28;;;;;;;11.47;5.30;;;26.30;11.10;;;;;;5065101;28;46587;-68
2023/05/21 10:50:15;;;;;;;9.50;5.43;;;26.30;10.80;;;;;;5066009;28;46353;-67
2023/05/21 10:52:51;;;;;;;9.10;5.83;;;26.20;10.50;;;;;;5064760;28;46629;-67
2023/05/21 10:55:35;;;;;;;10.50;5.90;;;26.20;10.70;;;;;;5067645;28;46287;-67
2023/05/21 10:58:41;;;;;;;9.30;5.87;;;26.40;9.50;;;;;;5066005;28;46594;-67
2023/05/21 11:01:07;;;;;;;14.07;6.20;;;26.40;9.50;;;;;;5067617;28;46439;-66
2023/05/21 11:03:33;;;;;;;8.60;5.60;;;26.30;9.60;;;;;;5068571;28;46378;-68
2023/05/21 11:06:04;;;;;;;7.97;5.40;;;26.20;8.90;;;;;;5062781;28;46467;-68
2023/05/21 11:08:32;;;;;;;10.40;6.37;;;26.30;9.00;;;;;;5066101;28;46222;-68
2023/05/21 11:10:58;;;;;;;8.30;5.77;;;26.20;9.50;;;;;;5066021;27;47310;-68
2023/05/21 11:13:43;;;;;;;8.40;6.00;;;26.00;9.60;;;;;;5061232;28;46364;-68
2023/05/21 11:16:14;;;;;;;9.30;5.70;;;25.90;9.90;;;;;;5067280;28;46621;-67
2023/05/21 11:18:40;;;;;;;11.33;5.53;;;25.80;10.10;;;;;;5066010;28;46322;-67
2023/05/21 11:21:10;;;;;;;8.10;5.60;;;25.80;10.30;;;;;;5064572;28;46347;-68
2023/05/21 11:24:01;;;;;;;16.07;6.73;;;25.70;10.50;;;;;;5064664;28;46372;-67
2023/05/21 11:26:30;;;;;;;11.73;6.30;;;25.60;10.40;;;;;;5059138;28;46543;-67
2023/05/21 11:29:16;;;;;;;10.93;6.23;;;25.80;10.10;;;;;;5066433;28;46419;-67
2023/05/21 11:31:46;;;;;;;7.40;5.70;;;25.80;9.60;;;;;;5064825;28;46226;-67
2023/05/21 11:34:27;;;;;;;8.23;5.47;;;25.80;9.40;;;;;;5061706;28;46549;-66
2023/05/21 11:37:32;;;;;;;9.90;5.60;;;26.00;9.30;;;;;;5062734;28;46326;-65
2023/05/21 11:40:15;;;;;;;8.20;5.80;;;25.90;9.10;;;;;;5064973;28;46712;-65
2023/05/21 11:42:42;;;;;;;12.33;6.00;;;25.80;8.80;;;;;;5068483;28;46070;-65
2023/05/21 11:45:09;;;;;;;9.23;5.67;;;26.00;9.00;;;;;;5067973;28;46394;-65
2023/05/21 11:47:35;;;;;;;16.50;5.50;;;26.10;9.20;;;;;;5069058;28;46539;-66
2023/05/21 11:50:02;;;;;;;9.00;5.33;;;26.00;8.20;;;;;;5067415;27;46424;-66
2023/05/21 11:52:31;;;;;;;14.03;6.27;;;26.00;8.30;;;;;;5067625;27;47102;-67
2023/05/21 11:54:58;;;;;;;13.90;6.00;;;26.20;8.40;;;;;;5069525;28;46528;-67
2023/05/21 11:57:29;;;;;;;13.70;5.63;;;26.30;8.30;;;;;;5069720;28;46461;-67
2023/05/21 11:59:57;;;;;;;12.23;5.60;;;26.20;7.70;;;;;;5069718;28;46448;-69
2023/05/21 12:02:25;;;;;;;8.30;5.20;;;26.20;7.30;;;;;;5066963;28;47035;-65
2023/05/21 12:04:50;;;;;;;8.63;5.60;;;26.20;7.40;;;;;;5069062;28;46400;-67
2023/05/21 12:07:19;;;;;;;12.27;6.00;;;26.40;7.30;;;;;;5064092;28;46639;-66
2023/05/21 12:09:47;;;;;;;9.93;5.40;;;26.60;6.60;;;;;;5065497;28;46639;-66
2023/05/21 12:12:23;;;;;;;9.47;5.53;;;26.90;6.40;;;;;;5064760;28;46491;-66
2023/05/21 12:14:50;;;;;;;9.93;5.70;;;27.10;6.00;;;;;;5063540;28;46438;-66
2023/05/21 12:17:24;;;;;;;10.10;6.17;;;27.20;6.10;;;;;;5066096;28;45814;-68
2023/05/21 12:19:52;;;;;;;10.47;5.97;;;27.30;5.50;;;;;;5068428;28;46460;-67
2023/05/21 12:22:17;;;;;;;11.17;6.17;;;27.20;5.50;;;;;;5066105;28;47271;-66
2023/05/21 12:24:44;;;;;;;8.10;5.70;;;27.10;5.60;;;;;;5070481;28;46338;-66
2023/05/21 12:27:11;;;;;;;10.40;5.90;;;27.10;5.50;;;;;;5066212;28;46693;-66
2023/05/21 12:29:41;;;;;;;10.20;5.97;;;27.00;5.50;;;;;;5066575;28;46703;-67
2023/05/21 12:32:09;;;;;;;7.80;5.63;;;27.00;5.30;;;;;;5068168;28;47383;-70
2023/05/21 12:34:49;;;;;;;9.83;5.60;;;27.00;5.70;;;;;;5068890;28;46274;-69
2023/05/21 12:37:21;;;;;;;10.00;5.77;;;27.00;5.80;;;;;;5067825;28;46534;-67
2023/05/21 12:39:49;;;;;;;10.30;5.73;;;27.00;5.50;;;;;;5070876;28;46407;-68